sensor_id;sensor_type;location;lat;lon;timestamp;pressure;altitude;pressure_sealevel;temperature;humidity
43155;BME280;34212;51.018;13.586;2023-03-13T00:02:55;97117.00;;;7.57;97.40
43155;BME280;34212;51.018;13.586;2023-03-13T00:07:57;97117.16;;;7.56;97.43
43155;BME280;34212;51.018;13.586;2023-03-13T00:12:58;97123.13;;;7.58;97.88
43155;BME280;34212;51.018;13.586;2023-03-13T00:17:59;97121.94;;;7.60;97.95
43155;BME280;34212;51.018;13.586;2023-03-13T00:23:01;97117.56;;;7.68;97.91
43155;BME280;34212;51.018;13.586;2023-03-13T00:28:02;97116.03;;;7.73;98.02
43155;BME280;34212;51.018;13.586;2023-03-13T00:33:05;97110.00;;;7.79;99.00
43155;BME280;34212;51.018;13.586;2023-03-13T00:38:06;97118.91;;;7.86;98.07
43155;BME280;34212;51.018;13.586;2023-03-13T00:43:08;97119.19;;;7.92;97.86
43155;BME280;34212;51.018;13.586;2023-03-13T00:48:09;97124.97;;;7.95;97.82
43155;BME280;34212;51.018;13.586;2023-03-13T00:53:11;97122.13;;;7.97;97.24
43155;BME280;34212;51.018;13.586;2023-03-13T00:58:12;97121.13;;;7.98;97.13
43155;BME280;34212;51.018;13.586;2023-03-13T01:03:14;97116.44;;;8.00;97.26
43155;BME280;34212;51.018;13.586;2023-03-13T01:08:16;97109.97;;;8.02;96.24
43155;BME280;34212;51.018;13.586;2023-03-13T01:13:17;97117.91;;;8.02;96.91
43155;BME280;34212;51.018;13.586;2023-03-13T01:18:19;97099.34;;;8.02;96.15
43155;BME280;34212;51.018;13.586;2023-03-13T01:23:20;97092.38;;;8.01;95.76
43155;BME280;34212;51.018;13.586;2023-03-13T01:28:24;97088.63;;;7.96;95.90
43155;BME280;34212;51.018;13.586;2023-03-13T01:33:27;97076.88;;;7.90;95.26
43155;BME280;34212;51.018;13.586;2023-03-13T01:38:29;97078.88;;;7.88;95.83
43155;BME280;34212;51.018;13.586;2023-03-13T01:43:32;97074.69;;;7.94;96.48
43155;BME280;34212;51.018;13.586;2023-03-13T01:48:41;97070.69;;;7.98;95.49
43155;BME280;34212;51.018;13.586;2023-03-13T01:53:48;97076.44;;;8.01;96.13
43155;BME280;34212;51.018;13.586;2023-03-13T01:58:52;97061.34;;;8.02;95.57
43155;BME280;34212;51.018;13.586;2023-03-13T02:03:55;97067.38;;;7.96;95.92
43155;BME280;34212;51.018;13.586;2023-03-13T02:09:13;97066.47;;;7.89;95.11
43155;BME280;34212;51.018;13.586;2023-03-13T02:14:20;97059.38;;;7.81;95.18
43155;BME280;34212;51.018;13.586;2023-03-13T02:24:37;97051.97;;;7.76;95.94
43155;BME280;34212;51.018;13.586;2023-03-13T02:29:41;97048.97;;;7.79;96.07
43155;BME280;34212;51.018;13.586;2023-03-13T02:34:45;97045.13;;;7.82;95.96
43155;BME280;34212;51.018;13.586;2023-03-13T02:39:50;97045.84;;;7.91;96.59
43155;BME280;34212;51.018;13.586;2023-03-13T02:44:53;97029.03;;;7.98;95.95
43155;BME280;34212;51.018;13.586;2023-03-13T02:49:55;97047.50;;;8.06;96.49
43155;BME280;34212;51.018;13.586;2023-03-13T02:55:02;97037.00;;;8.13;96.10
43155;BME280;34212;51.018;13.586;2023-03-13T03:00:06;97044.78;;;8.15;95.78
43155;BME280;34212;51.018;13.586;2023-03-13T03:05:09;97036.50;;;8.09;95.86
43155;BME280;34212;51.018;13.586;2023-03-13T03:10:11;97029.47;;;8.02;96.40
43155;BME280;34212;51.018;13.586;2023-03-13T03:15:14;97027.53;;;7.96;96.06
43155;BME280;34212;51.018;13.586;2023-03-13T03:20:19;97018.66;;;7.89;95.75
43155;BME280;34212;51.018;13.586;2023-03-13T03:25:21;97006.38;;;7.87;96.69
43155;BME280;34212;51.018;13.586;2023-03-13T03:30:23;96995.41;;;7.91;96.85
43155;BME280;34212;51.018;13.586;2023-03-13T03:35:26;96973.78;;;7.94;96.77
43155;BME280;34212;51.018;13.586;2023-03-13T03:40:27;96978.22;;;8.01;96.87
43155;BME280;34212;51.018;13.586;2023-03-13T03:45:30;96965.81;;;8.08;96.98
43155;BME280;34212;51.018;13.586;2023-03-13T03:50:32;96950.63;;;8.17;96.60
43155;BME280;34212;51.018;13.586;2023-03-13T03:55:35;96947.59;;;8.20;96.12
43155;BME280;34212;51.018;13.586;2023-03-13T04:00:37;96938.59;;;8.21;96.39
43155;BME280;34212;51.018;13.586;2023-03-13T04:05:39;96921.03;;;8.20;96.74
43155;BME280;34212;51.018;13.586;2023-03-13T04:10:41;96914.06;;;8.19;96.35
43155;BME280;34212;51.018;13.586;2023-03-13T04:15:43;96915.06;;;8.18;96.22
43155;BME280;34212;51.018;13.586;2023-03-13T04:20:45;96906.66;;;8.15;96.28
43155;BME280;34212;51.018;13.586;2023-03-13T04:25:47;96891.91;;;8.12;96.52
43155;BME280;34212;51.018;13.586;2023-03-13T04:30:48;96899.72;;;8.14;96.63
43155;BME280;34212;51.018;13.586;2023-03-13T04:36:08;96877.28;;;8.16;96.57
43155;BME280;34212;51.018;13.586;2023-03-13T04:41:31;96880.19;;;8.21;96.53
43155;BME280;34212;51.018;13.586;2023-03-13T04:46:51;96861.84;;;8.26;96.67
43155;BME280;34212;51.018;13.586;2023-03-13T04:52:11;96861.47;;;8.29;96.96
43155;BME280;34212;51.018;13.586;2023-03-13T04:57:45;96846.78;;;8.33;96.70
43155;BME280;34212;51.018;13.586;2023-03-13T05:03:13;96846.41;;;8.37;96.60
43155;BME280;34212;51.018;13.586;2023-03-13T05:08:24;96841.09;;;8.37;96.17
43155;BME280;34212;51.018;13.586;2023-03-13T05:13:44;96814.53;;;8.37;96.16
43155;BME280;34212;51.018;13.586;2023-03-13T05:18:55;96812.19;;;8.42;96.32
43155;BME280;34212;51.018;13.586;2023-03-13T05:24:19;96793.81;;;8.47;96.42
43155;BME280;34212;51.018;13.586;2023-03-13T05:29:44;96787.72;;;8.53;96.50
43155;BME280;34212;51.018;13.586;2023-03-13T05:35:15;96776.16;;;8.61;96.34
43155;BME280;34212;51.018;13.586;2023-03-13T05:40:51;96763.72;;;8.68;97.08
43155;BME280;34212;51.018;13.586;2023-03-13T05:46:09;96764.59;;;8.75;97.08
43155;BME280;34212;51.018;13.586;2023-03-13T05:51:27;96753.19;;;8.81;96.46
43155;BME280;34212;51.018;13.586;2023-03-13T05:56:49;96746.28;;;8.87;96.41
43155;BME280;34212;51.018;13.586;2023-03-13T06:02:18;96729.53;;;8.93;96.55
43155;BME280;34212;51.018;13.586;2023-03-13T06:07:21;96726.72;;;9.01;95.95
43155;BME280;34212;51.018;13.586;2023-03-13T06:12:23;96728.41;;;9.09;96.32
43155;BME280;34212;51.018;13.586;2023-03-13T06:17:25;96740.72;;;9.16;95.91
43155;BME280;34212;51.018;13.586;2023-03-13T06:22:26;96714.56;;;9.20;95.99
43155;BME280;34212;51.018;13.586;2023-03-13T06:27:28;96710.06;;;9.27;96.50
43155;BME280;34212;51.018;13.586;2023-03-13T06:32:29;96699.44;;;9.34;96.02
43155;BME280;34212;51.018;13.586;2023-03-13T06:37:31;96692.34;;;9.41;95.28
43155;BME280;34212;51.018;13.586;2023-03-13T06:42:33;96680.25;;;9.45;95.15
43155;BME280;34212;51.018;13.586;2023-03-13T06:47:34;96671.25;;;9.46;95.21
43155;BME280;34212;51.018;13.586;2023-03-13T06:52:36;96669.22;;;9.48;95.05
43155;BME280;34212;51.018;13.586;2023-03-13T06:57:49;96664.31;;;9.52;94.70
43155;BME280;34212;51.018;13.586;2023-03-13T07:02:50;96676.59;;;9.59;95.36
43155;BME280;34212;51.018;13.586;2023-03-13T07:07:52;96670.91;;;9.69;95.61
43155;BME280;34212;51.018;13.586;2023-03-13T07:12:53;96648.41;;;9.85;95.86
43155;BME280;34212;51.018;13.586;2023-03-13T07:17:58;96638.16;;;9.95;95.27
43155;BME280;34212;51.018;13.586;2023-03-13T07:22:59;96630.41;;;10.00;95.34
43155;BME280;34212;51.018;13.586;2023-03-13T07:28:01;96626.28;;;10.04;96.25
43155;BME280;34212;51.018;13.586;2023-03-13T07:33:02;96608.69;;;10.03;95.65
43155;BME280;34212;51.018;13.586;2023-03-13T07:38:04;96601.69;;;10.02;96.16
43155;BME280;34212;51.018;13.586;2023-03-13T07:43:05;96582.88;;;9.97;96.10
43155;BME280;34212;51.018;13.586;2023-03-13T07:48:07;96565.63;;;10.00;96.52
43155;BME280;34212;51.018;13.586;2023-03-13T07:53:08;96548.84;;;9.99;96.28
43155;BME280;34212;51.018;13.586;2023-03-13T07:58:10;96553.13;;;10.07;97.05
43155;BME280;34212;51.018;13.586;2023-03-13T08:03:11;96552.09;;;10.14;96.87
43155;BME280;34212;51.018;13.586;2023-03-13T08:08:13;96551.69;;;10.17;97.10
43155;BME280;34212;51.018;13.586;2023-03-13T08:13:14;96564.78;;;10.26;97.46
43155;BME280;34212;51.018;13.586;2023-03-13T08:18:16;96569.50;;;10.37;96.93
43155;BME280;34212;51.018;13.586;2023-03-13T08:23:17;96570.72;;;10.41;97.32
43155;BME280;34212;51.018;13.586;2023-03-13T08:28:19;96565.81;;;10.38;96.83
43155;BME280;34212;51.018;13.586;2023-03-13T08:33:20;96575.44;;;10.26;96.24
43155;BME280;34212;51.018;13.586;2023-03-13T08:38:22;96567.66;;;10.31;97.08
43155;BME280;34212;51.018;13.586;2023-03-13T08:43:23;96591.81;;;10.49;97.50
43155;BME280;34212;51.018;13.586;2023-03-13T08:48:25;96607.59;;;10.57;96.94
43155;BME280;34212;51.018;13.586;2023-03-13T08:53:27;96593.44;;;10.63;96.71
43155;BME280;34212;51.018;13.586;2023-03-13T08:58:29;96588.66;;;10.79;97.01
43155;BME280;34212;51.018;13.586;2023-03-13T09:03:31;96567.06;;;10.94;97.33
43155;BME280;34212;51.018;13.586;2023-03-13T09:08:33;96577.63;;;11.14;97.06
43155;BME280;34212;51.018;13.586;2023-03-13T09:13:38;96572.06;;;11.22;96.54
43155;BME280;34212;51.018;13.586;2023-03-13T09:18:40;96561.19;;;11.17;96.12
43155;BME280;34212;51.018;13.586;2023-03-13T09:23:42;96562.81;;;11.18;96.24
43155;BME280;34212;51.018;13.586;2023-03-13T09:28:44;96581.34;;;11.13;95.36
43155;BME280;34212;51.018;13.586;2023-03-13T09:33:46;96567.44;;;11.04;95.64
43155;BME280;34212;51.018;13.586;2023-03-13T09:38:56;96573.59;;;10.98;96.08
43155;BME280;34212;51.018;13.586;2023-03-13T09:44:32;96555.50;;;11.06;97.02
43155;BME280;34212;51.018;13.586;2023-03-13T15:40:31;96329.91;;;14.85;85.04
43155;BME280;34212;51.018;13.586;2023-03-13T15:45:34;96305.53;;;14.86;84.67
43155;BME280;34212;51.018;13.586;2023-03-13T15:50:36;96298.03;;;14.88;84.77
43155;BME280;34212;51.018;13.586;2023-03-13T15:55:38;96299.19;;;14.92;85.45
43155;BME280;34212;51.018;13.586;2023-03-13T16:00:40;96283.97;;;14.98;86.54
43155;BME280;34212;51.018;13.586;2023-03-13T16:05:42;96285.44;;;15.06;86.74
43155;BME280;34212;51.018;13.586;2023-03-13T16:10:44;96264.34;;;14.97;86.85
43155;BME280;34212;51.018;13.586;2023-03-13T16:15:46;96252.84;;;14.80;86.63
43155;BME280;34212;51.018;13.586;2023-03-13T16:20:50;96246.91;;;14.61;87.29
43155;BME280;34212;51.018;13.586;2023-03-13T16:25:51;96237.50;;;14.47;87.43
43155;BME280;34212;51.018;13.586;2023-03-13T16:30:53;96232.03;;;14.42;87.67
43155;BME280;34212;51.018;13.586;2023-03-13T16:35:56;96223.44;;;14.40;87.96
43155;BME280;34212;51.018;13.586;2023-03-13T16:40:58;96213.25;;;14.42;88.38
43155;BME280;34212;51.018;13.586;2023-03-13T16:45:59;96205.63;;;14.33;87.61
43155;BME280;34212;51.018;13.586;2023-03-13T16:51:01;96197.06;;;14.20;88.08
43155;BME280;34212;51.018;13.586;2023-03-13T16:56:02;96189.59;;;14.05;87.98
43155;BME280;34212;51.018;13.586;2023-03-13T17:01:04;96185.09;;;13.94;88.07
43155;BME280;34212;51.018;13.586;2023-03-13T17:06:09;96182.31;;;13.89;89.44
43155;BME280;34212;51.018;13.586;2023-03-13T17:11:14;96177.34;;;13.80;88.44
43155;BME280;34212;51.018;13.586;2023-03-13T17:16:19;96182.13;;;13.78;88.64
43155;BME280;34212;51.018;13.586;2023-03-13T17:21:24;96168.97;;;13.77;88.66
43155;BME280;34212;51.018;13.586;2023-03-13T17:26:28;96171.78;;;13.70;87.93
43155;BME280;34212;51.018;13.586;2023-03-13T17:31:31;96178.69;;;13.66;88.66
43155;BME280;34212;51.018;13.586;2023-03-13T17:36:37;96176.81;;;13.67;87.59
43155;BME280;34212;51.018;13.586;2023-03-13T17:41:39;96176.00;;;13.66;88.08
43155;BME280;34212;51.018;13.586;2023-03-13T17:46:43;96163.69;;;13.65;87.18
43155;BME280;34212;51.018;13.586;2023-03-13T17:51:46;96171.13;;;13.63;87.62
43155;BME280;34212;51.018;13.586;2023-03-13T17:56:50;96155.31;;;13.61;87.16
43155;BME280;34212;51.018;13.586;2023-03-13T18:01:52;96155.44;;;13.55;88.49
43155;BME280;34212;51.018;13.586;2023-03-13T18:06:54;96156.75;;;13.52;87.97
43155;BME280;34212;51.018;13.586;2023-03-13T18:11:55;96154.28;;;13.51;88.34
43155;BME280;34212;51.018;13.586;2023-03-13T18:16:56;96129.59;;;13.49;87.49
43155;BME280;34212;51.018;13.586;2023-03-13T18:21:58;96129.28;;;13.45;87.81
43155;BME280;34212;51.018;13.586;2023-03-13T18:26:59;96129.75;;;13.42;87.62
43155;BME280;34212;51.018;13.586;2023-03-13T18:32:01;96109.13;;;13.43;87.56
43155;BME280;34212;51.018;13.586;2023-03-13T18:37:05;96109.25;;;13.48;87.96
43155;BME280;34212;51.018;13.586;2023-03-13T18:42:16;96111.78;;;13.54;87.70
43155;BME280;34212;51.018;13.586;2023-03-13T18:47:21;96100.09;;;13.60;87.71
43155;BME280;34212;51.018;13.586;2023-03-13T18:52:25;96102.56;;;13.62;87.35
43155;BME280;34212;51.018;13.586;2023-03-13T18:57:26;96085.91;;;13.60;87.71
43155;BME280;34212;51.018;13.586;2023-03-13T19:02:28;96084.28;;;13.59;87.94
43155;BME280;34212;51.018;13.586;2023-03-13T19:07:29;96093.72;;;13.61;87.81
43155;BME280;34212;51.018;13.586;2023-03-13T19:12:33;96100.19;;;13.66;88.41
43155;BME280;34212;51.018;13.586;2023-03-13T19:17:34;96116.84;;;13.68;88.24
43155;BME280;34212;51.018;13.586;2023-03-13T19:22:37;96178.69;;;13.66;88.04
43155;BME280;34212;51.018;13.586;2023-03-13T19:27:38;96310.34;;;13.34;87.01
43155;BME280;34212;51.018;13.586;2023-03-13T19:32:41;96266.25;;;12.48;89.38
43155;BME280;34212;51.018;13.586;2023-03-13T19:37:42;96248.91;;;11.97;93.31
43155;BME280;34212;51.018;13.586;2023-03-13T19:42:44;96241.72;;;11.79;94.52
43155;BME280;34212;51.018;13.586;2023-03-13T19:47:46;96230.59;;;11.64;95.46
43155;BME280;34212;51.018;13.586;2023-03-13T19:52:48;96215.19;;;11.66;96.55
43155;BME280;34212;51.018;13.586;2023-03-13T19:57:49;96205.66;;;11.70;96.19
43155;BME280;34212;51.018;13.586;2023-03-13T20:02:51;96180.94;;;11.63;96.50
43155;BME280;34212;51.018;13.586;2023-03-13T20:07:55;96171.59;;;11.53;96.39
43155;BME280;34212;51.018;13.586;2023-03-13T20:12:57;96164.34;;;11.42;96.32
43155;BME280;34212;51.018;13.586;2023-03-13T20:17:59;96168.59;;;11.31;96.89
43155;BME280;34212;51.018;13.586;2023-03-13T20:23:00;96138.38;;;11.19;97.53
43155;BME280;34212;51.018;13.586;2023-03-13T20:28:02;96121.53;;;11.19;97.52
43155;BME280;34212;51.018;13.586;2023-03-13T20:33:04;96088.78;;;11.12;98.09
43155;BME280;34212;51.018;13.586;2023-03-13T20:38:05;96063.75;;;11.13;98.34
43155;BME280;34212;51.018;13.586;2023-03-13T20:43:07;96049.34;;;11.14;97.88
43155;BME280;34212;51.018;13.586;2023-03-13T20:48:08;96049.81;;;11.10;98.12
43155;BME280;34212;51.018;13.586;2023-03-13T20:53:10;96033.81;;;11.10;97.74
43155;BME280;34212;51.018;13.586;2023-03-13T20:58:13;96034.25;;;11.07;98.32
43155;BME280;34212;51.018;13.586;2023-03-13T21:03:14;96051.31;;;11.06;98.37
43155;BME280;34212;51.018;13.586;2023-03-13T21:08:17;96050.03;;;11.09;98.91
43155;BME280;34212;51.018;13.586;2023-03-13T21:13:19;96030.53;;;11.08;98.57
43155;BME280;34212;51.018;13.586;2023-03-13T21:18:20;96033.81;;;11.10;98.42
43155;BME280;34212;51.018;13.586;2023-03-13T21:23:22;96039.72;;;11.13;98.82
43155;BME280;34212;51.018;13.586;2023-03-13T21:28:23;96025.59;;;11.12;98.99
43155;BME280;34212;51.018;13.586;2023-03-13T21:33:25;96027.41;;;11.12;99.14
43155;BME280;34212;51.018;13.586;2023-03-13T21:38:26;96021.88;;;11.13;98.82
43155;BME280;34212;51.018;13.586;2023-03-13T21:43:27;96024.28;;;11.15;98.75
43155;BME280;34212;51.018;13.586;2023-03-13T21:48:29;96021.16;;;11.18;98.52
43155;BME280;34212;51.018;13.586;2023-03-13T21:53:31;96020.16;;;11.19;98.81
43155;BME280;34212;51.018;13.586;2023-03-13T21:58:33;96037.44;;;11.16;98.67
43155;BME280;34212;51.018;13.586;2023-03-13T22:03:34;96050.53;;;11.18;98.82
43155;BME280;34212;51.018;13.586;2023-03-13T22:08:36;96051.13;;;11.20;98.99
43155;BME280;34212;51.018;13.586;2023-03-13T22:13:38;96045.53;;;11.21;98.92
43155;BME280;34212;51.018;13.586;2023-03-13T22:18:40;96045.78;;;11.20;98.93
43155;BME280;34212;51.018;13.586;2023-03-13T22:23:43;96064.56;;;11.13;98.26
43155;BME280;34212;51.018;13.586;2023-03-13T22:28:45;96063.59;;;11.07;99.34
43155;BME280;34212;51.018;13.586;2023-03-13T22:33:46;96085.75;;;11.08;98.69
43155;BME280;34212;51.018;13.586;2023-03-13T22:38:48;96093.22;;;10.99;98.85
43155;BME280;34212;51.018;13.586;2023-03-13T22:43:49;96076.88;;;10.96;99.75
43155;BME280;34212;51.018;13.586;2023-03-13T22:48:51;96080.34;;;10.96;99.01
43155;BME280;34212;51.018;13.586;2023-03-13T22:53:52;96080.50;;;11.01;99.70
43155;BME280;34212;51.018;13.586;2023-03-13T22:58:54;96080.06;;;11.04;99.92
43155;BME280;34212;51.018;13.586;2023-03-13T23:03:55;96078.56;;;11.08;99.44
43155;BME280;34212;51.018;13.586;2023-03-13T23:08:57;96065.59;;;11.12;99.67
43155;BME280;34212;51.018;13.586;2023-03-13T23:13:58;96046.09;;;11.12;99.33
43155;BME280;34212;51.018;13.586;2023-03-13T23:19:01;96044.03;;;11.14;99.21
43155;BME280;34212;51.018;13.586;2023-03-13T23:24:02;96032.31;;;11.15;99.45
43155;BME280;34212;51.018;13.586;2023-03-13T23:29:04;95999.25;;;11.16;99.02
43155;BME280;34212;51.018;13.586;2023-03-13T23:34:05;95934.19;;;11.17;99.08
43155;BME280;34212;51.018;13.586;2023-03-13T23:39:07;95881.75;;;11.10;98.86
43155;BME280;34212;51.018;13.586;2023-03-13T23:44:08;95858.66;;;11.04;98.62
43155;BME280;34212;51.018;13.586;2023-03-13T23:49:09;95841.50;;;11.00;98.95
43155;BME280;34212;51.018;13.586;2023-03-13T23:54:13;95856.91;;;10.98;99.12
43155;BME280;34212;51.018;13.586;2023-03-13T23:59:14;95849.50;;;11.00;99.65
